createdAt,value
2024-03-05T00:00:55.260Z,8.30
2024-03-05T00:03:22.310Z,8.30
2024-03-05T00:05:49.213Z,8.30
2024-03-05T00:08:16.246Z,8.30
2024-03-05T00:10:43.211Z,8.30
2024-03-05T00:13:12.480Z,8.20
2024-03-05T00:15:40.939Z,8.20
2024-03-05T00:18:11.184Z,8.20
2024-03-05T00:20:37.932Z,8.20
2024-03-05T00:23:05.035Z,8.20
2024-03-05T00:25:31.975Z,8.10
2024-03-05T00:27:58.853Z,8.10
2024-03-05T00:30:25.614Z,8.10
2024-03-05T00:32:52.404Z,8.10
2024-03-05T00:35:19.318Z,8.10
2024-03-05T00:37:46.024Z,8.10
2024-03-05T00:40:12.863Z,8.00
2024-03-05T00:42:39.703Z,8.00
2024-03-05T00:45:08.513Z,8.00
2024-03-05T00:47:36.684Z,8.00
2024-03-05T00:50:08.299Z,8.00
2024-03-05T00:52:38.534Z,7.90
2024-03-05T00:55:08.772Z,7.90
2024-03-05T00:57:39.850Z,7.90
2024-03-05T01:00:07.202Z,7.90
2024-03-05T01:02:34.267Z,7.90
2024-03-05T01:05:01.170Z,7.90
2024-03-05T01:07:28.166Z,7.80
2024-03-05T01:09:54.952Z,7.80
2024-03-05T01:12:21.831Z,7.80
2024-03-05T01:14:48.513Z,7.80
2024-03-05T01:17:16.043Z,7.80
2024-03-05T01:19:42.948Z,7.80
2024-03-05T01:22:09.951Z,7.70
2024-03-05T01:24:36.926Z,7.70
2024-03-05T01:27:06.653Z,7.70
2024-03-05T01:29:33.594Z,7.70
2024-03-05T01:32:02.993Z,7.70
2024-03-05T01:34:30.202Z,7.70
2024-03-05T01:36:58.671Z,7.70
2024-03-05T01:39:30.249Z,7.70
2024-03-05T01:41:58.078Z,7.60
2024-03-05T01:44:25.716Z,7.60
2024-03-05T01:46:55.587Z,7.60
2024-03-05T01:49:23.390Z,7.60
2024-03-05T01:51:51.074Z,7.60
2024-03-05T01:54:19.223Z,7.50
2024-03-05T01:56:49.894Z,7.50
2024-03-05T01:59:18.644Z,7.50
2024-03-05T02:01:48.677Z,7.50
2024-03-05T02:04:17.135Z,7.50
2024-03-05T02:06:44.427Z,7.40
2024-03-05T02:09:14.367Z,7.40
2024-03-05T02:11:53.010Z,7.40
2024-03-05T02:14:27.982Z,7.40
2024-03-05T02:16:59.338Z,7.40
2024-03-05T02:19:27.389Z,7.40
2024-03-05T02:22:04.981Z,7.40
2024-03-05T02:24:31.991Z,7.40
2024-03-05T02:27:03.046Z,7.30
2024-03-05T02:29:32.447Z,7.30
2024-03-05T02:31:59.361Z,7.30
2024-03-05T02:34:27.327Z,7.30
2024-03-05T02:36:54.241Z,7.30
2024-03-05T02:39:21.442Z,7.30
2024-03-05T02:41:48.167Z,7.30
2024-03-05T02:44:14.855Z,7.30
2024-03-05T02:46:41.535Z,7.30
2024-03-05T02:49:08.585Z,7.20
2024-03-05T02:51:35.942Z,7.20
2024-03-05T02:54:02.619Z,7.20
2024-03-05T02:56:29.307Z,7.20
2024-03-05T02:58:56.421Z,7.20
2024-03-05T03:01:23.326Z,7.20
2024-03-05T03:03:50.055Z,7.20
2024-03-05T03:06:17.739Z,7.20
2024-03-05T03:08:44.925Z,7.20
2024-03-05T03:11:18.990Z,7.20
2024-03-05T03:13:51.493Z,7.10
2024-03-05T03:16:18.751Z,7.10
2024-03-05T03:18:45.616Z,7.10
2024-03-05T03:21:12.935Z,7.10
2024-03-05T03:23:39.672Z,7.10
2024-03-05T03:26:08.047Z,7.10
2024-03-05T03:28:34.933Z,7.10
2024-03-05T03:31:01.743Z,7.10
2024-03-05T03:33:28.535Z,7.10
2024-03-05T03:35:56.994Z,7.10
2024-03-05T03:38:25.063Z,7.00
2024-03-05T03:40:53.736Z,7.00
2024-03-05T03:43:21.075Z,7.00
2024-03-05T03:45:49.307Z,7.00
2024-03-05T03:48:16.390Z,7.00
2024-03-05T03:50:45.543Z,7.00
2024-03-05T03:53:12.238Z,7.00
2024-03-05T03:55:38.981Z,7.00
2024-03-05T03:58:05.733Z,7.00
2024-03-05T04:00:33.984Z,7.00
2024-03-05T04:03:01.006Z,7.00
2024-03-05T04:05:27.759Z,6.90
2024-03-05T04:07:54.560Z,6.90
2024-03-05T04:10:21.929Z,6.90
2024-03-05T04:12:48.687Z,6.90
2024-03-05T04:15:22.430Z,6.90
2024-03-05T04:17:50.420Z,6.90
2024-03-05T04:20:18.242Z,6.90
2024-03-05T04:22:45.123Z,6.90
2024-03-05T04:25:12.016Z,6.90
2024-03-05T04:27:43.612Z,6.90
2024-03-05T04:30:14.652Z,6.90
2024-03-05T04:32:56.261Z,6.90
2024-03-05T04:35:26.519Z,6.80
2024-03-05T04:37:53.449Z,6.80
2024-03-05T04:40:20.324Z,6.80
2024-03-05T04:42:49.132Z,6.80
2024-03-05T04:45:16.728Z,6.80
2024-03-05T04:47:46.147Z,6.80
2024-03-05T04:50:15.976Z,6.80
2024-03-05T04:52:43.143Z,6.80
2024-03-05T04:55:11.350Z,6.80
2024-03-05T04:57:38.318Z,6.80
2024-03-05T05:00:18.759Z,6.80
2024-03-05T05:02:46.270Z,6.70
2024-03-05T05:05:12.995Z,6.70
2024-03-05T05:07:40.481Z,6.70
2024-03-05T05:10:08.994Z,6.70
2024-03-05T05:12:36.606Z,6.70
2024-03-05T05:15:04.176Z,6.70
2024-03-05T05:17:30.975Z,6.70
2024-03-05T05:20:01.252Z,6.70
2024-03-05T05:22:28.453Z,6.70
2024-03-05T05:24:55.192Z,6.70
2024-03-05T05:27:23.141Z,6.60
2024-03-05T05:29:50.822Z,6.60
2024-03-05T05:32:17.989Z,6.60
2024-03-05T05:34:45.190Z,6.60
2024-03-05T05:37:11.874Z,6.60
2024-03-05T05:39:38.553Z,6.60
2024-03-05T05:42:05.975Z,6.60
2024-03-05T05:44:32.766Z,6.60
2024-03-05T05:46:59.640Z,6.60
2024-03-05T05:49:32.577Z,6.60
2024-03-05T05:51:59.632Z,6.60
2024-03-05T05:54:26.461Z,6.60
2024-03-05T05:56:56.584Z,6.60
2024-03-05T05:59:23.326Z,6.60
2024-03-05T06:01:50.085Z,6.50
2024-03-05T06:04:20.482Z,6.50
2024-03-05T06:06:47.241Z,6.50
2024-03-05T06:09:14.517Z,6.50
2024-03-05T06:11:41.346Z,6.50
2024-03-05T06:14:08.561Z,6.50
2024-03-05T06:16:35.945Z,6.50
2024-03-05T06:19:02.844Z,6.50
2024-03-05T06:21:29.802Z,6.50
2024-03-05T06:23:56.726Z,6.50
2024-03-05T06:26:23.720Z,6.50
2024-03-05T06:28:50.447Z,6.50
2024-03-05T06:31:17.495Z,6.50
2024-03-05T06:33:45.686Z,6.50
2024-03-05T06:36:13.567Z,6.50
2024-03-05T06:38:40.735Z,6.50
2024-03-05T06:41:07.919Z,6.40
2024-03-05T06:43:38.300Z,6.40
2024-03-05T06:46:14.460Z,6.40
2024-03-05T06:48:49.102Z,6.40
2024-03-05T06:51:42.211Z,6.50
2024-03-05T06:54:28.255Z,6.40
2024-03-05T06:56:54.975Z,6.40
2024-03-05T06:59:22.247Z,6.40
2024-03-05T07:01:49.171Z,6.40
2024-03-05T07:04:19.181Z,6.40
2024-03-05T07:06:45.838Z,6.40
2024-03-05T07:09:15.096Z,6.40
2024-03-05T07:11:42.106Z,6.40
2024-03-05T07:14:09.189Z,6.40
2024-03-05T07:16:35.924Z,6.40
2024-03-05T07:19:02.867Z,6.40
2024-03-05T07:21:29.749Z,6.40
2024-03-05T07:23:57.750Z,6.40
2024-03-05T07:26:24.692Z,6.40
2024-03-05T07:28:53.886Z,6.50
2024-03-05T07:31:20.945Z,6.50
2024-03-05T07:33:51.645Z,6.50
2024-03-05T07:36:20.513Z,6.50
2024-03-05T07:38:47.340Z,6.50
2024-03-05T07:41:22.506Z,6.50
2024-03-05T07:43:56.435Z,6.50
2024-03-05T07:46:23.218Z,6.50
2024-03-05T07:48:49.907Z,6.50
2024-03-05T07:51:23.899Z,6.50
2024-03-05T07:53:52.818Z,6.50
2024-03-05T07:56:19.588Z,6.50
2024-03-05T07:58:46.614Z,6.50
2024-03-05T08:01:15.903Z,6.50
2024-03-05T08:03:42.900Z,6.50
2024-03-05T08:06:09.866Z,6.60
2024-03-05T08:08:36.658Z,6.60
2024-03-05T08:11:04.014Z,6.60
2024-03-05T08:13:30.907Z,6.60
2024-03-05T08:15:57.714Z,6.60
2024-03-05T08:18:24.429Z,6.60
2024-03-05T08:20:52.090Z,6.60
2024-03-05T08:23:18.785Z,6.60
2024-03-05T08:25:49.484Z,6.60
2024-03-05T08:28:16.369Z,6.60
2024-03-05T08:30:43.986Z,6.60
2024-03-05T08:33:11.335Z,6.60
2024-03-05T08:35:38.531Z,6.60
2024-03-05T08:38:05.456Z,6.70
2024-03-05T08:40:36.945Z,6.70
2024-03-05T08:43:05.261Z,6.70
2024-03-05T08:45:33.155Z,6.70
2024-03-05T08:48:00.286Z,6.70
2024-03-05T08:50:30.683Z,6.70
2024-03-05T08:52:59.746Z,6.80
2024-03-05T08:55:27.975Z,6.70
2024-03-05T08:57:56.328Z,6.70
2024-03-05T09:00:33.329Z,6.80
2024-03-05T09:03:10.537Z,6.80
2024-03-05T09:05:37.679Z,6.80
2024-03-05T09:08:06.561Z,6.80
2024-03-05T09:10:35.491Z,6.80
2024-03-05T09:13:02.769Z,6.90
2024-03-05T09:15:29.574Z,6.90
2024-03-05T09:17:56.428Z,6.90
2024-03-05T09:20:24.586Z,6.90
2024-03-05T09:22:51.427Z,6.90
2024-03-05T09:25:18.610Z,7.00
2024-03-05T09:27:48.584Z,7.00
2024-03-05T09:30:16.636Z,7.00
2024-03-05T09:32:48.180Z,7.00
2024-03-05T09:35:16.586Z,7.00
2024-03-05T09:37:46.962Z,7.00
2024-03-05T09:40:20.888Z,7.00
2024-03-05T09:42:48.344Z,7.00
2024-03-05T09:45:19.303Z,7.00
2024-03-05T09:47:48.764Z,7.10
2024-03-05T09:50:18.261Z,7.10
2024-03-05T09:52:49.297Z,7.10
2024-03-05T09:55:17.888Z,7.10
2024-03-05T09:57:48.949Z,7.10
2024-03-05T10:00:20.001Z,7.10
2024-03-05T10:02:53.866Z,7.20
2024-03-05T10:05:21.266Z,7.20
2024-03-05T10:07:49.946Z,7.20
2024-03-05T10:10:21.589Z,7.20
2024-03-05T10:12:50.466Z,7.20
2024-03-05T10:15:20.129Z,7.20
2024-03-05T10:17:51.868Z,7.20
2024-03-05T10:20:33.522Z,7.30
2024-03-05T10:23:03.791Z,7.30
2024-03-05T10:25:36.928Z,7.30
2024-03-05T10:28:05.323Z,7.30
2024-03-05T10:30:37.770Z,7.30
2024-03-05T10:33:12.151Z,7.30
2024-03-05T10:35:40.214Z,7.30
2024-03-05T10:38:13.567Z,7.30
2024-03-05T10:40:41.465Z,7.30
2024-03-05T10:43:09.717Z,7.40
2024-03-05T10:45:41.974Z,7.40
2024-03-05T10:48:11.955Z,7.40
2024-03-05T10:50:43.325Z,7.40
2024-03-05T10:53:10.679Z,7.40
2024-03-05T10:55:42.083Z,7.40
2024-03-05T10:58:14.193Z,7.40
2024-03-05T11:00:47.586Z,7.40
2024-03-05T11:03:18.783Z,7.40
2024-03-05T11:05:48.716Z,7.40
2024-03-05T11:08:19.702Z,7.50
2024-03-05T11:10:50.977Z,7.40
2024-03-05T11:13:19.022Z,7.50
2024-03-05T11:15:46.400Z,7.40
2024-03-05T11:18:35.074Z,7.40
2024-03-05T11:21:12.570Z,7.50
2024-03-05T11:23:54.233Z,7.50
2024-03-05T11:26:26.010Z,7.50
2024-03-05T11:29:04.617Z,7.50
2024-03-05T11:31:31.519Z,7.60
2024-03-05T11:34:10.122Z,7.50
2024-03-05T11:36:37.873Z,7.60
2024-03-05T11:39:06.262Z,7.60
2024-03-05T11:41:37.027Z,7.60
2024-03-05T11:44:04.837Z,7.60
2024-03-05T11:46:41.948Z,7.60
2024-03-05T11:49:10.521Z,7.60
2024-03-05T11:51:41.467Z,7.60
2024-03-05T11:54:13.741Z,7.70
2024-03-05T11:56:42.538Z,7.70
2024-03-05T11:59:11.758Z,7.70
2024-03-05T12:01:41.187Z,7.70
2024-03-05T12:04:09.671Z,7.70
2024-03-05T12:06:37.878Z,7.70
2024-03-05T12:09:20.244Z,7.70
2024-03-05T12:12:07.111Z,7.80
2024-03-05T12:14:35.950Z,7.80
2024-03-05T12:17:13.722Z,7.80
2024-03-05T12:19:41.717Z,7.80
2024-03-05T12:22:10.297Z,7.90
2024-03-05T12:24:38.132Z,7.90
2024-03-05T12:27:07.135Z,7.90
2024-03-05T12:29:41.693Z,7.90
2024-03-05T12:32:10.485Z,8.00
2024-03-05T12:34:40.590Z,8.00
2024-03-05T12:37:10.584Z,8.00
2024-03-05T12:39:41.483Z,8.00
2024-03-05T12:42:14.747Z,8.00
2024-03-05T12:44:42.662Z,8.00
2024-03-05T12:47:14.988Z,8.10
2024-03-05T12:49:51.627Z,8.00
2024-03-05T12:52:20.633Z,8.00
2024-03-05T12:54:57.466Z,8.00
2024-03-05T12:57:34.885Z,8.00
2024-03-05T13:00:07.328Z,8.00
2024-03-05T13:02:34.270Z,8.00
2024-03-05T13:05:01.614Z,8.00
2024-03-05T13:07:31.768Z,8.10
2024-03-05T13:10:00.580Z,8.10
2024-03-05T13:12:27.932Z,8.10
2024-03-05T13:14:54.671Z,8.20
2024-03-05T13:17:22.296Z,8.20
2024-03-05T13:19:49.055Z,8.20
2024-03-05T13:22:15.867Z,8.20
2024-03-05T13:24:42.698Z,8.20
2024-03-05T13:27:09.312Z,8.20
2024-03-05T13:29:37.193Z,8.20
2024-03-05T13:32:06.961Z,8.20
2024-03-05T13:34:33.914Z,8.20
2024-03-05T13:37:02.921Z,8.20
2024-03-05T13:39:29.588Z,8.20
2024-03-05T13:41:56.485Z,8.30
2024-03-05T13:44:24.232Z,8.30
2024-03-05T13:46:53.363Z,8.30
2024-03-05T13:49:22.128Z,8.20
2024-03-05T13:51:49.590Z,8.20
2024-03-05T13:54:16.573Z,8.30
2024-03-05T13:56:44.578Z,8.30
2024-03-05T13:59:12.241Z,8.30
2024-03-05T14:01:40.534Z,8.30
2024-03-05T14:04:10.833Z,8.40
2024-03-05T14:06:39.203Z,8.30
2024-03-05T14:09:13.692Z,8.30
2024-03-05T14:11:43.476Z,8.40
2024-03-05T14:14:17.502Z,8.30
2024-03-05T14:16:45.769Z,8.40
2024-03-05T14:19:12.582Z,8.40
2024-03-05T14:22:05.511Z,8.40
2024-03-05T14:24:32.372Z,8.40
2024-03-05T14:27:00.828Z,8.40
2024-03-05T14:29:29.449Z,8.40
2024-03-05T14:31:56.404Z,8.40
2024-03-05T14:34:23.290Z,8.50
2024-03-05T14:36:53.411Z,8.40
2024-03-05T14:39:22.543Z,8.40
2024-03-05T14:42:18.923Z,8.40
2024-03-05T14:44:47.305Z,8.50
2024-03-05T14:47:14.118Z,8.50
2024-03-05T14:49:41.091Z,8.40
2024-03-05T14:52:10.954Z,8.50
2024-03-05T14:54:46.855Z,8.50
2024-03-05T14:57:13.949Z,8.50
2024-03-05T14:59:41.192Z,8.50
2024-03-05T15:04:48.991Z,8.50
2024-03-05T15:07:22.338Z,8.60
2024-03-05T15:09:49.549Z,8.60
2024-03-05T15:12:48.821Z,8.50
2024-03-05T15:15:25.303Z,8.50
2024-03-05T15:17:52.494Z,8.50
2024-03-05T15:20:20.394Z,8.60
2024-03-05T15:22:51.423Z,8.60
2024-03-05T15:25:24.515Z,8.60
2024-03-05T15:28:02.812Z,8.60
2024-03-05T15:30:36.142Z,8.60
2024-03-05T15:33:03.703Z,8.60
2024-03-05T15:35:31.415Z,8.70
2024-03-05T15:38:21.291Z,8.70
2024-03-05T15:40:58.757Z,8.60
2024-03-05T15:43:41.940Z,8.60
2024-03-05T15:46:10.439Z,8.70
2024-03-05T15:48:37.346Z,8.70
2024-03-05T15:51:31.945Z,8.70
2024-03-05T15:53:58.683Z,8.70
2024-03-05T15:56:58.075Z,8.70
2024-03-05T15:59:51.923Z,8.70
2024-03-05T16:02:19.983Z,8.70
2024-03-05T16:05:05.410Z,8.70
2024-03-05T16:07:35.522Z,8.70
2024-03-05T16:10:14.897Z,8.70
2024-03-05T16:12:52.157Z,8.70
2024-03-05T16:15:34.583Z,8.80
2024-03-05T16:18:01.913Z,8.70
2024-03-05T16:20:29.819Z,8.80
2024-03-05T16:22:57.107Z,8.80
2024-03-05T16:26:10.736Z,8.80
2024-03-05T16:28:40.347Z,8.80
2024-03-05T16:31:07.755Z,8.80
2024-03-05T16:33:35.093Z,8.80
2024-03-05T16:36:28.196Z,8.80
2024-03-05T16:38:55.125Z,8.80
2024-03-05T16:41:39.317Z,8.80
2024-03-05T16:44:31.173Z,8.80
2024-03-05T16:46:58.026Z,8.80
2024-03-05T16:49:25.086Z,8.80
2024-03-05T16:51:52.034Z,8.80
2024-03-05T16:54:18.984Z,8.80
2024-03-05T16:56:56.743Z,8.90
2024-03-05T16:59:23.627Z,8.90
2024-03-05T17:01:50.930Z,8.90
2024-03-05T17:04:22.385Z,8.90
2024-03-05T17:06:49.577Z,8.90
2024-03-05T17:10:10.691Z,8.90
2024-03-05T17:12:57.060Z,8.90
2024-03-05T17:15:33.467Z,8.90
2024-03-05T17:18:04.655Z,8.90
2024-03-05T17:20:34.863Z,8.90
2024-03-05T17:23:05.859Z,8.90
2024-03-05T17:25:49.073Z,8.90
2024-03-05T17:28:15.886Z,8.90
2024-03-05T17:31:14.444Z,8.90
2024-03-05T17:33:41.210Z,8.90
2024-03-05T17:36:08.365Z,8.90
2024-03-05T17:38:35.163Z,8.90
2024-03-05T17:41:04.835Z,8.90
2024-03-05T17:43:32.169Z,8.90
2024-03-05T17:45:59.925Z,8.90
2024-03-05T17:48:28.526Z,8.90
2024-03-05T17:50:55.692Z,8.90
2024-03-05T17:53:32.277Z,8.80
2024-03-05T17:55:59.259Z,8.80
2024-03-05T17:58:26.348Z,8.80
2024-03-05T18:01:07.090Z,8.80
2024-03-05T18:03:39.768Z,8.80
2024-03-05T18:06:17.429Z,8.80
2024-03-05T18:08:49.506Z,8.80
2024-03-05T18:11:33.126Z,8.80
2024-03-05T18:14:00.578Z,8.80
2024-03-05T18:16:35.632Z,8.70
2024-03-05T18:19:14.854Z,8.70
2024-03-05T18:21:42.405Z,8.70
2024-03-05T18:24:24.168Z,8.70
2024-03-05T18:26:51.021Z,8.70
2024-03-05T18:29:28.302Z,8.70
2024-03-05T18:32:23.683Z,8.70
2024-03-05T18:34:50.769Z,8.70
2024-03-05T18:37:22.428Z,8.60
2024-03-05T18:39:49.141Z,8.70
2024-03-05T18:42:19.511Z,8.70
2024-03-05T18:44:49.538Z,8.60
2024-03-05T18:47:20.091Z,8.60
2024-03-05T18:49:47.159Z,8.60
2024-03-05T18:52:15.472Z,8.60
2024-03-05T18:54:42.227Z,8.60
2024-03-05T18:57:08.989Z,8.60
2024-03-05T18:59:35.912Z,8.60
2024-03-05T19:02:11.748Z,8.60
2024-03-05T19:04:38.636Z,8.60
2024-03-05T19:07:06.677Z,8.60
2024-03-05T19:09:33.477Z,8.60
2024-03-05T19:12:01.634Z,8.60
2024-03-05T19:14:46.255Z,8.60
2024-03-05T19:17:13.471Z,8.60
2024-03-05T19:22:45.232Z,8.50
2024-03-05T19:25:12.757Z,8.60
2024-03-05T19:30:43.640Z,8.60
2024-03-05T19:33:44.937Z,8.50
2024-03-05T19:36:14.862Z,8.50
2024-03-05T19:38:43.062Z,8.50
2024-03-05T19:43:54.333Z,8.50
2024-03-05T19:46:21.408Z,8.50
2024-03-05T19:48:56.190Z,8.50
2024-03-05T19:51:23.766Z,8.50
2024-03-05T19:53:50.600Z,8.50
2024-03-05T19:56:25.377Z,8.50
2024-03-05T19:58:52.628Z,8.50
2024-03-05T20:01:20.060Z,8.50
2024-03-05T20:03:46.864Z,8.40
2024-03-05T20:06:13.620Z,8.40
2024-03-05T20:08:41.265Z,8.40
2024-03-05T20:11:12.274Z,8.40
2024-03-05T20:13:39.691Z,8.40
2024-03-05T20:16:06.794Z,8.40
2024-03-05T20:18:33.862Z,8.40
2024-03-05T20:21:00.624Z,8.40
2024-03-05T20:23:42.917Z,8.40
2024-03-05T20:26:10.874Z,8.40
2024-03-05T20:28:37.950Z,8.40
2024-03-05T20:31:05.013Z,8.40
2024-03-05T20:33:34.068Z,8.40
2024-03-05T20:36:03.275Z,8.30
2024-03-05T20:38:30.280Z,8.30
2024-03-05T20:40:57.178Z,8.30
2024-03-05T20:43:24.164Z,8.30
2024-03-05T20:45:51.386Z,8.30
2024-03-05T20:48:18.328Z,8.30
2024-03-05T20:50:47.704Z,8.30
2024-03-05T20:53:14.824Z,8.30
2024-03-05T20:55:41.738Z,8.30
2024-03-05T20:58:18.155Z,8.30
2024-03-05T21:01:01.119Z,8.30
2024-03-05T21:03:31.585Z,8.30
2024-03-05T21:05:58.560Z,8.30
2024-03-05T21:08:25.373Z,8.30
2024-03-05T21:10:55.976Z,8.30
2024-03-05T21:13:27.232Z,8.30
2024-03-05T21:15:54.516Z,8.30
2024-03-05T21:18:32.725Z,8.30
2024-03-05T21:21:02.845Z,8.20
2024-03-05T21:23:32.125Z,8.20
2024-03-05T21:26:09.277Z,8.20
2024-03-05T21:28:45.694Z,8.20
2024-03-05T21:31:12.500Z,8.20
2024-03-05T21:33:39.238Z,8.20
2024-03-05T21:36:07.415Z,8.20
2024-03-05T21:38:36.232Z,8.20
2024-03-05T21:41:04.121Z,8.20
2024-03-05T21:43:31.152Z,8.20
2024-03-05T21:46:10.214Z,8.20
2024-03-05T21:48:37.111Z,8.20
2024-03-05T21:51:10.175Z,8.20
2024-03-05T21:53:44.082Z,8.20
2024-03-05T21:56:11.439Z,8.20
2024-03-05T21:58:39.877Z,8.20
2024-03-05T22:01:06.918Z,8.20
2024-03-05T22:03:33.749Z,8.20
2024-03-05T22:06:08.092Z,8.20
2024-03-05T22:08:39.235Z,8.20
2024-03-05T22:11:06.155Z,8.20
2024-03-05T22:13:34.582Z,8.20
2024-03-05T22:16:01.498Z,8.20
2024-03-05T22:18:28.516Z,8.20
2024-03-05T22:20:55.381Z,8.20
2024-03-05T22:23:22.209Z,8.20
2024-03-05T22:25:49.260Z,8.20
2024-03-05T22:28:16.360Z,8.20
2024-03-05T22:30:43.754Z,8.20
2024-03-05T22:33:12.178Z,8.10
2024-03-05T22:35:39.169Z,8.10
2024-03-05T22:38:06.432Z,8.20
2024-03-05T22:40:33.275Z,8.10
2024-03-05T22:43:00.205Z,8.20
2024-03-05T22:45:29.129Z,8.10
2024-03-05T22:47:55.968Z,8.10
2024-03-05T22:50:23.815Z,8.10
2024-03-05T22:52:52.272Z,8.10
2024-03-05T22:55:31.014Z,8.10
2024-03-05T22:57:57.842Z,8.10
2024-03-05T23:00:24.906Z,8.10
2024-03-05T23:02:55.062Z,8.10
2024-03-05T23:05:22.402Z,8.10
2024-03-05T23:07:49.493Z,8.10
2024-03-05T23:10:17.570Z,8.10
2024-03-05T23:12:45.516Z,8.10
2024-03-05T23:15:16.456Z,8.10
2024-03-05T23:17:44.445Z,8.10
2024-03-05T23:20:13.139Z,8.10
2024-03-05T23:22:40.815Z,8.10
2024-03-05T23:25:10.101Z,8.10
2024-03-05T23:27:38.185Z,8.10
2024-03-05T23:30:05.444Z,8.10
2024-03-05T23:32:33.406Z,8.10
2024-03-05T23:35:06.564Z,8.10
2024-03-05T23:37:41.368Z,8.00
2024-03-05T23:40:11.151Z,8.10
2024-03-05T23:42:54.511Z,8.00
2024-03-05T23:45:21.373Z,8.00
2024-03-05T23:47:48.309Z,8.00
2024-03-05T23:50:27.776Z,8.00
2024-03-05T23:52:54.523Z,8.00
2024-03-05T23:55:21.408Z,8.00
2024-03-05T23:57:48.214Z,8.00
